Time;durP1;ratioP1;P1;durP2;ratioP2;P2;SDS_P1;SDS_P2;PMS_P1;PMS_P2;Temp;Humidity;BMP_temperature;BMP_pressure;BME280_temperature;BME280_humidity;BME280_pressure;Samples;Min_cycle;Max_cycle;Signal;HPM_P1;HPM_P2
2021/03/06 00:02:23;;;;;;;5.97;3.37;;;;;;;2.06;100.00;103516.02;1873603;74;933302;-77
2021/03/06 00:04:53;;;;;;;6.37;3.50;;;;;;;1.99;100.00;103521.82;1861159;75;933350;-77
2021/03/06 00:07:23;;;;;;;3.83;1.93;;;;;;;2.13;100.00;103523.09;1873789;74;934437;-77
2021/03/06 00:09:56;;;;;;;3.37;1.90;;;;;;;2.20;100.00;103525.52;1861405;75;934440;-78
2021/03/06 00:12:26;;;;;;;5.03;2.27;;;;;;;2.21;100.00;103528.10;1873648;75;934460;-78
2021/03/06 00:14:56;;;;;;;6.62;2.30;;;;;;;2.23;100.00;103525.17;1861380;75;934588;-78
2021/03/06 00:17:26;;;;;;;3.83;2.20;;;;;;;2.19;100.00;103523.28;1873741;75;934401;-78
2021/03/06 00:19:56;;;;;;;2.80;2.00;;;;;;;2.14;100.00;103526.19;1861545;75;934475;-78
2021/03/06 00:22:26;;;;;;;3.43;1.80;;;;;;;2.03;100.00;103523.72;1873777;75;934445;-78
2021/03/06 00:24:57;;;;;;;3.62;2.15;;;;;;;1.82;100.00;103522.75;1861538;75;934594;-78
2021/03/06 00:27:27;;;;;;;5.90;2.40;;;;;;;1.75;100.00;103523.89;1873637;75;933453;-79
2021/03/06 00:29:57;;;;;;;3.05;1.70;;;;;;;1.77;100.00;103527.34;1861399;75;933210;-78
2021/03/06 00:32:27;;;;;;;2.80;1.83;;;;;;;1.71;100.00;103531.26;1873773;75;933174;-78
2021/03/06 00:34:56;;;;;;;5.10;2.20;;;;;;;1.55;100.00;103534.73;1861495;74;934527;-78
2021/03/06 00:37:26;;;;;;;6.60;1.83;;;;;;;1.80;100.00;103537.11;1873763;75;934586;-78
2021/03/06 00:39:56;;;;;;;4.37;1.87;;;;;;;1.88;100.00;103541.81;1861283;75;934389;-78
2021/03/06 00:42:26;;;;;;;2.10;1.60;;;;;;;1.70;100.00;103535.88;1873817;75;934458;-78
2021/03/06 00:44:56;;;;;;;5.30;1.83;;;;;;;1.60;100.00;103539.22;1861463;75;934410;-78
2021/03/06 00:47:26;;;;;;;3.23;1.70;;;;;;;1.64;100.00;103531.02;1873829;75;934575;-79
2021/03/06 00:49:56;;;;;;;4.60;2.27;;;;;;;1.54;100.00;103527.52;1861372;75;934558;-79
2021/03/06 00:52:26;;;;;;;4.77;2.17;;;;;;;1.49;100.00;103537.26;1873755;75;934681;-79
2021/03/06 00:54:55;;;;;;;4.35;2.55;;;;;;;1.54;100.00;103537.11;1861461;75;934640;-79
2021/03/06 00:57:25;;;;;;;4.60;2.23;;;;;;;1.59;100.00;103535.26;1873769;75;934774;-79
2021/03/06 00:59:55;;;;;;;4.30;1.80;;;;;;;1.84;100.00;103538.00;1861562;75;934592;-79
2021/03/06 01:02:25;;;;;;;3.83;2.10;;;;;;;1.66;100.00;103538.59;1873697;74;934005;-79
2021/03/06 01:04:55;;;;;;;3.52;2.02;;;;;;;1.70;100.00;103535.88;1861244;75;933249;-79
2021/03/06 01:07:25;;;;;;;5.50;2.57;;;;;;;2.19;100.00;103531.51;1873739;75;933425;-79
2021/03/06 01:09:56;;;;;;;2.12;1.92;;;;;;;2.41;100.00;103536.05;1861219;74;933584;-79
2021/03/06 01:12:25;;;;;;;3.77;2.53;;;;;;;2.02;100.00;103530.22;1873703;75;934427;-79
2021/03/06 01:14:55;;;;;;;4.03;2.00;;;;;;;2.12;100.00;103526.34;1861289;75;934521;-77
2021/03/06 01:17:25;;;;;;;4.03;2.37;;;;;;;2.17;100.00;103528.09;1873899;75;934407;-78
2021/03/06 01:19:55;;;;;;;5.90;3.05;;;;;;;2.10;100.00;103533.00;1861431;75;934367;-78
2021/03/06 01:22:25;;;;;;;2.87;2.58;;;;;;;2.15;100.00;103523.27;1873829;75;934477;-77
2021/03/06 01:24:55;;;;;;;4.20;2.30;;;;;;;2.15;100.00;103521.03;1861578;75;933705;-77
2021/03/06 01:27:24;;;;;;;5.43;2.80;;;;;;;2.14;100.00;103523.45;1873769;75;934447;-77
2021/03/06 01:29:54;;;;;;;5.35;2.72;;;;;;;2.12;100.00;103532.34;1861407;75;934279;-77
2021/03/06 01:32:24;;;;;;;4.40;2.60;;;;;;;2.38;100.00;103533.65;1873742;75;933203;-78
2021/03/06 01:34:54;;;;;;;5.03;2.50;;;;;;;2.67;100.00;103527.22;1861627;75;933300;-78
2021/03/06 01:37:24;;;;;;;5.07;2.40;;;;;;;2.21;100.00;103531.36;1873899;75;933237;-77
2021/03/06 01:39:54;;;;;;;3.42;2.25;;;;;;;2.09;100.00;103529.94;1861302;75;934336;-78
2021/03/06 01:42:23;;;;;;;3.93;2.70;;;;;;;2.23;100.00;103532.03;1873789;75;934465;-78
2021/03/06 01:44:53;;;;;;;4.20;2.55;;;;;;;2.30;100.00;103527.63;1861580;75;934445;-79
2021/03/06 01:47:23;;;;;;;2.73;2.43;;;;;;;2.38;100.00;103522.67;1873809;75;933400;-78
2021/03/06 01:49:53;;;;;;;4.42;2.65;;;;;;;2.15;100.00;103526.00;1861556;75;935480;-79
2021/03/06 01:52:24;;;;;;;5.17;3.00;;;;;;;2.11;100.00;103519.13;1873892;75;934480;-79
2021/03/06 01:54:55;;;;;;;4.00;2.42;;;;;;;2.17;100.00;103525.34;1861491;75;934383;-79
2021/03/06 01:57:26;;;;;;;4.20;2.80;;;;;;;2.24;100.00;103522.79;1873790;75;934414;-79
2021/03/06 01:59:57;;;;;;;8.60;2.63;;;;;;;2.46;100.00;103516.70;1861405;75;933685;-79
2021/03/06 02:02:29;;;;;;;4.72;2.47;;;;;;;2.72;100.00;103502.38;1873678;74;934484;-78
2021/03/06 02:05:00;;;;;;;5.42;2.10;;;;;;;2.81;100.00;103501.88;1861458;75;934426;-79
2021/03/06 02:07:30;;;;;;;4.37;2.97;;;;;;;2.78;100.00;103510.45;1873794;75;934502;-78
2021/03/06 02:10:02;;;;;;;7.67;2.77;;;;;;;2.45;100.00;103520.97;1861299;75;934719;-78
2021/03/06 02:12:38;;;;;;;5.27;2.87;;;;;;;2.35;100.00;103521.65;1873882;75;933352;-79
2021/03/06 02:15:17;;;;;;;6.17;2.70;;;;;;;2.50;100.00;103513.97;1861168;75;934432;-78
2021/03/06 02:17:53;;;;;;;4.70;2.50;;;;;;;2.95;100.00;103513.53;1873612;75;932551;-78
2021/03/06 02:20:52;;;;;;;4.63;2.93;;;;;;;2.59;100.00;103512.97;1873704;75;933233;-78
2021/03/06 02:23:42;;;;;;;5.57;2.67;;;;;;;2.84;100.00;103503.41;1860545;74;934379;-77
2021/03/06 02:26:32;;;;;;;4.97;2.87;;;;;;;2.56;100.00;103512.45;1861408;74;933124;-78
2021/03/06 02:29:25;;;;;;;5.90;3.05;;;;;;;2.42;100.00;103507.60;1861554;75;933214;-77
2021/03/06 02:31:58;;;;;;;3.57;2.30;;;;;;;2.41;100.00;103509.48;1861196;75;933356;-77
2021/03/06 02:34:30;;;;;;;5.03;2.23;;;;;;;2.79;100.00;103499.80;1873570;75;934430;-78
2021/03/06 02:37:04;;;;;;;3.90;2.20;;;;;;;2.79;100.00;103500.30;1861429;75;934341;-77
2021/03/06 02:39:35;;;;;;;6.10;2.57;;;;;;;2.84;100.00;103504.27;1873720;74;932583;-78
2021/03/06 02:42:07;;;;;;;5.35;2.47;;;;;;;2.78;100.00;103502.22;1861582;75;934327;-78
2021/03/06 02:44:38;;;;;;;3.07;2.20;;;;;;;2.74;100.00;103496.70;1873848;75;932484;-77
2021/03/06 02:47:09;;;;;;;5.17;2.53;;;;;;;2.78;100.00;103498.61;1861446;75;934412;-77
2021/03/06 02:49:39;;;;;;;4.60;2.20;;;;;;;2.77;100.00;103494.14;1873716;75;932599;-77
2021/03/06 02:52:09;;;;;;;3.50;2.33;;;;;;;2.68;100.00;103494.13;1861363;75;934398;-77
2021/03/06 02:54:38;;;;;;;4.77;2.47;;;;;;;2.49;100.00;103499.91;1873697;75;932496;-78
2021/03/06 02:57:08;;;;;;;2.40;2.20;;;;;;;2.36;100.00;103499.52;1861450;75;933332;-78
2021/03/06 02:59:51;;;;;;;4.20;2.70;;;;;;;2.27;100.00;103500.51;1873738;75;932717;-77
2021/03/06 03:02:25;;;;;;;3.47;2.50;;;;;;;2.28;100.00;103503.09;1872562;74;933599;-77
2021/03/06 03:05:01;;;;;;;4.90;2.63;;;;;;;2.36;100.00;103498.14;1861005;75;933304;-77
2021/03/06 03:07:36;;;;;;;8.07;2.30;;;;;;;2.30;100.00;103493.34;1872742;75;933414;-77
2021/03/06 03:10:10;;;;;;;5.30;2.65;;;;;;;2.51;100.00;103496.49;1861643;75;934460;-77
2021/03/06 03:12:44;;;;;;;4.50;1.87;;;;;;;2.63;100.00;103497.89;1873799;75;932510;-77
2021/03/06 03:15:18;;;;;;;6.93;2.40;;;;;;;2.69;100.00;103497.73;1873388;74;934662;-78
2021/03/06 03:17:52;;;;;;;7.43;2.60;;;;;;;2.72;100.00;103490.53;1873623;75;932636;-77
2021/03/06 03:20:30;;;;;;;5.67;2.40;;;;;;;2.47;100.00;103492.88;1873701;75;934554;-77
2021/03/06 03:23:05;;;;;;;3.65;2.33;;;;;;;2.14;100.00;103490.00;1861313;75;934633;-77
2021/03/06 03:25:37;;;;;;;4.13;2.60;;;;;;;2.08;100.00;103494.80;1873718;75;932794;-77
2021/03/06 03:28:10;;;;;;;5.30;2.40;;;;;;;2.04;100.00;103492.55;1861518;75;934319;-77
2021/03/06 03:30:41;;;;;;;8.43;2.63;;;;;;;2.38;100.00;103498.85;1873560;75;932748;-77
2021/03/06 03:33:13;;;;;;;5.40;2.53;;;;;;;2.11;100.00;103501.31;1861412;75;934489;-77
2021/03/06 03:35:45;;;;;;;5.27;2.43;;;;;;;1.84;100.00;103502.88;1861435;76;932459;-77
2021/03/06 03:38:15;;;;;;;5.27;2.67;;;;;;;1.96;100.00;103495.25;1861271;76;933307;-77
2021/03/06 03:40:46;;;;;;;5.10;2.37;;;;;;;2.45;100.00;103501.27;1861288;76;931785;-77
2021/03/06 03:43:18;;;;;;;5.97;2.60;;;;;;;2.61;100.00;103500.47;1861275;76;933264;-77
2021/03/06 03:45:47;;;;;;;5.20;2.73;;;;;;;2.61;100.00;103500.47;1861294;76;931413;-77
2021/03/06 03:48:36;;;;;;;4.50;2.60;;;;;;;2.68;100.00;103504.25;1739972;80;932686;-76
2021/03/06 03:51:07;;;;;;;6.33;2.65;;;;;;;2.62;100.00;103507.14;1755339;80;934477;-76
2021/03/06 03:53:38;;;;;;;5.30;2.70;;;;;;;2.67;100.00;103502.02;1771820;80;932795;-77
2021/03/06 03:56:10;;;;;;;5.57;2.90;;;;;;;2.78;100.00;103499.98;1728760;81;934530;-77
2021/03/06 03:58:40;;;;;;;2.67;2.10;;;;;;;2.83;100.00;103504.42;1766713;80;932701;-77
2021/03/06 04:01:10;;;;;;;4.87;2.77;;;;;;;2.89;100.00;103501.88;1760288;78;934473;-77
2021/03/06 04:03:41;;;;;;;7.00;3.90;;;;;;;3.09;100.00;103496.91;1739820;80;932905;-77
2021/03/06 04:06:11;;;;;;;5.77;2.73;;;;;;;3.01;100.00;103495.53;1755060;80;934440;-77
2021/03/06 04:08:41;;;;;;;4.65;3.72;;;;;;;2.78;100.00;103499.48;1771682;80;932647;-78
2021/03/06 04:11:11;;;;;;;7.60;3.97;;;;;;;3.01;100.00;103495.02;1728719;81;934732;-78
2021/03/06 04:13:40;;;;;;;5.67;3.80;;;;;;;3.15;100.00;103497.61;1766721;80;932920;-77
2021/03/06 04:16:11;;;;;;;5.47;3.73;;;;;;;3.16;100.00;103493.33;1760252;78;933635;-77
2021/03/06 04:18:41;;;;;;;4.13;3.13;;;;;;;3.02;100.00;103499.49;1739857;80;931535;-78
2021/03/06 04:21:10;;;;;;;8.70;3.50;;;;;;;3.15;100.00;103505.84;1830549;76;934508;-77
2021/03/06 04:23:40;;;;;;;7.80;3.60;;;;;;;3.25;100.00;103505.69;1837905;77;932624;-77
2021/03/06 04:26:10;;;;;;;6.27;3.50;;;;;;;3.19;100.00;103504.47;1825964;76;934424;-77
2021/03/06 04:28:40;;;;;;;6.17;3.20;;;;;;;3.05;100.00;103485.92;1873655;75;932550;-78
2021/03/06 04:31:10;;;;;;;6.47;3.33;;;;;;;3.09;100.00;103503.27;1861464;74;934395;-78
2021/03/06 04:33:40;;;;;;;4.10;2.80;;;;;;;2.94;100.00;103510.98;1873608;75;932655;-78
2021/03/06 04:36:10;;;;;;;5.33;2.53;;;;;;;3.05;100.00;103511.50;1861486;75;934446;-77
2021/03/06 04:38:40;;;;;;;5.33;2.90;;;;;;;3.11;100.00;103511.34;1873671;75;932758;-78
2021/03/06 04:41:10;;;;;;;5.40;2.63;;;;;;;3.00;100.00;103512.52;1861510;75;934513;-77
2021/03/06 04:43:40;;;;;;;3.90;2.70;;;;;;;2.89;100.00;103521.61;1873727;75;932574;-77
2021/03/06 04:46:10;;;;;;;3.35;2.90;;;;;;;2.86;100.00;103517.33;1861321;75;933248;-77
2021/03/06 04:48:39;;;;;;;4.67;2.33;;;;;;;2.88;100.00;103526.23;1873700;75;931369;-77
2021/03/06 04:51:09;;;;;;;4.90;2.70;;;;;;;3.01;100.00;103525.22;1861520;75;933709;-77
2021/03/06 04:53:39;;;;;;;6.43;3.50;;;;;;;3.01;100.00;103521.11;1873608;75;932289;-77
2021/03/06 04:56:09;;;;;;;5.43;3.30;;;;;;;2.98;100.00;103528.83;1861443;75;934406;-77
2021/03/06 04:58:39;;;;;;;6.53;3.00;;;;;;;2.94;100.00;103534.31;1873740;74;932592;-77
2021/03/06 05:01:08;;;;;;;8.60;2.20;;;;;;;3.03;100.00;103530.05;1849109;75;934477;-77
2021/03/06 05:03:38;;;;;;;3.20;1.77;;;;;;;3.18;100.00;103524.72;1873748;74;932548;-77
2021/03/06 05:06:08;;;;;;;6.73;2.13;;;;;;;3.08;100.00;103532.28;1861507;75;934391;-77
2021/03/06 05:08:39;;;;;;;4.70;2.30;;;;;;;2.95;100.00;103531.38;1873722;75;932551;-77
2021/03/06 05:11:09;;;;;;;4.33;2.23;;;;;;;2.95;100.00;103534.67;1861468;75;934337;-77
2021/03/06 05:13:39;;;;;;;10.00;2.47;;;;;;;3.01;100.00;103533.97;1873774;75;932527;-77
2021/03/06 05:16:09;;;;;;;5.03;2.83;;;;;;;3.05;100.00;103534.84;1861439;75;936389;-77
2021/03/06 05:18:39;;;;;;;3.73;2.30;;;;;;;3.06;100.00;103535.70;1873797;75;932523;-77
2021/03/06 05:21:09;;;;;;;9.53;2.83;;;;;;;3.20;100.00;103536.41;1861477;75;933322;-77
2021/03/06 05:23:39;;;;;;;3.50;2.20;;;;;;;3.28;100.00;103525.42;1873678;75;932737;-77
2021/03/06 05:26:09;;;;;;;3.97;2.40;;;;;;;3.30;100.00;103530.21;1861437;75;933240;-77
2021/03/06 05:28:39;;;;;;;4.73;2.77;;;;;;;3.33;100.00;103524.91;1873624;75;932417;-78
2021/03/06 05:31:09;;;;;;;3.30;1.93;;;;;;;3.31;100.00;103525.58;1861420;75;934430;-78
2021/03/06 05:33:39;;;;;;;5.70;2.30;;;;;;;3.45;100.00;103524.89;1873809;75;932611;-78
2021/03/06 05:36:09;;;;;;;4.30;2.17;;;;;;;3.14;100.00;103527.47;1861617;74;934437;-78
2021/03/06 05:38:39;;;;;;;5.93;2.40;;;;;;;3.03;100.00;103531.42;1873826;75;932754;-78
2021/03/06 05:41:09;;;;;;;4.30;2.70;;;;;;;3.04;100.00;103524.87;1861521;75;934435;-78
2021/03/06 05:43:40;;;;;;;5.73;2.30;;;;;;;3.09;100.00;103532.09;1873704;75;932589;-78
2021/03/06 05:46:10;;;;;;;3.73;2.20;;;;;;;3.01;100.00;103523.85;1861514;75;934443;-77
2021/03/06 05:48:39;;;;;;;5.77;2.40;;;;;;;3.01;100.00;103523.85;1873874;75;932636;-77
2021/03/06 05:51:11;;;;;;;4.60;2.37;;;;;;;3.04;100.00;103519.38;1861478;75;934490;-77
2021/03/06 05:53:43;;;;;;;5.03;2.40;;;;;;;3.03;100.00;103524.55;1873737;75;931518;-77
2021/03/06 05:56:14;;;;;;;5.20;2.40;;;;;;;3.09;100.00;103525.73;1861305;75;933203;-78
2021/03/06 05:58:47;;;;;;;6.43;2.70;;;;;;;3.17;100.00;103523.86;1873745;75;931473;-79
2021/03/06 06:01:17;;;;;;;5.33;2.47;;;;;;;3.06;100.00;103522.83;1873658;75;934386;-79
2021/03/06 06:03:48;;;;;;;7.13;2.80;;;;;;;3.04;100.00;103522.13;1873565;74;932401;-78
2021/03/06 06:06:18;;;;;;;5.58;2.87;;;;;;;3.18;100.00;103520.59;1873716;74;934750;-78
2021/03/06 06:08:49;;;;;;;3.77;2.50;;;;;;;3.15;100.00;103534.69;1867040;75;934492;-78
2021/03/06 06:11:19;;;;;;;6.03;2.93;;;;;;;3.00;100.00;103515.27;1805841;77;934608;-78
2021/03/06 06:13:50;;;;;;;3.63;2.70;;;;;;;3.15;100.00;103526.45;1826028;76;934618;-78
2021/03/06 06:16:21;;;;;;;4.60;2.90;;;;;;;3.24;100.00;103527.30;1867508;76;934597;-78
2021/03/06 06:18:51;;;;;;;4.63;2.60;;;;;;;3.26;100.00;103524.72;1855079;76;934522;-78
2021/03/06 06:21:43;;;;;;;7.67;2.60;;;;;;;3.42;100.00;103530.75;1838129;77;934364;-78
2021/03/06 06:24:15;;;;;;;3.73;2.53;;;;;;;3.24;100.00;103528.68;1861373;75;934359;-78
2021/03/06 06:26:55;;;;;;;4.37;2.23;;;;;;;3.23;100.00;103531.08;1873742;75;932592;-78
2021/03/06 06:29:38;;;;;;;5.47;2.37;;;;;;;3.23;100.00;103531.08;1873551;75;934337;-78
2021/03/06 06:32:09;;;;;;;7.63;2.60;;;;;;;3.14;100.00;103531.59;1861488;75;933382;-78
2021/03/06 06:34:41;;;;;;;4.40;2.35;;;;;;;3.11;100.00;103533.31;1873432;74;931401;-76
2021/03/06 06:37:12;;;;;;;4.20;2.47;;;;;;;3.30;100.00;103530.72;1861400;75;934362;-77
2021/03/06 06:39:43;;;;;;;5.60;2.30;;;;;;;3.19;100.00;103533.31;1873762;75;932706;-77
2021/03/06 06:42:13;;;;;;;4.17;2.20;;;;;;;3.19;100.00;103533.31;1861474;75;934399;-77
2021/03/06 06:44:55;;;;;;;3.93;2.73;;;;;;;3.21;100.00;103533.47;1873647;75;932544;-77
2021/03/06 06:47:27;;;;;;;5.30;2.33;;;;;;;3.34;100.00;103534.87;1873796;75;934464;-78
2021/03/06 06:49:57;;;;;;;3.83;1.87;;;;;;;3.17;100.00;103547.20;1861383;75;934354;-78
2021/03/06 06:52:28;;;;;;;7.13;2.93;;;;;;;3.34;100.00;103537.63;1873781;75;933296;-78
2021/03/06 06:55:01;;;;;;;4.63;2.23;;;;;;;3.19;100.00;103545.67;1861034;75;934532;-78
2021/03/06 06:57:31;;;;;;;4.12;2.10;;;;;;;3.23;100.00;103536.56;1873540;75;934506;-78
2021/03/06 07:00:04;;;;;;;4.70;2.45;;;;;;;3.22;100.00;103541.20;1861457;75;934441;-78
2021/03/06 07:02:35;;;;;;;4.67;2.30;;;;;;;3.21;100.00;103544.97;1873538;74;932423;-78
2021/03/06 07:05:08;;;;;;;4.80;2.40;;;;;;;3.19;100.00;103549.79;1861317;75;933723;-77
2021/03/06 07:07:40;;;;;;;5.60;1.97;;;;;;;3.23;100.00;103547.05;1873776;74;931412;-77
2021/03/06 07:10:12;;;;;;;5.13;2.30;;;;;;;3.21;100.00;103549.95;1861274;75;933290;-77
2021/03/06 07:12:45;;;;;;;4.03;2.50;;;;;;;3.32;100.00;103547.91;1873656;75;932690;-77
2021/03/06 07:15:20;;;;;;;4.40;1.98;;;;;;;3.32;100.00;103552.03;1873480;75;934534;-76
2021/03/06 07:17:52;;;;;;;3.70;1.93;;;;;;;3.35;100.00;103548.41;1861334;74;934709;-76
2021/03/06 07:20:34;;;;;;;6.70;2.20;;;;;;;3.45;100.00;103552.37;1873521;75;934507;-77
2021/03/06 07:23:19;;;;;;;4.70;2.37;;;;;;;3.47;100.00;103551.67;1861504;75;933750;-76
2021/03/06 07:25:53;;;;;;;3.80;2.13;;;;;;;3.45;100.00;103551.00;1861319;75;934485;-77
2021/03/06 07:28:26;;;;;;;6.47;2.40;;;;;;;3.52;100.00;103551.50;1873821;75;934829;-77
2021/03/06 07:30:58;;;;;;;5.95;2.37;;;;;;;3.56;100.00;103559.74;1861227;75;933357;-77
2021/03/06 07:33:29;;;;;;;6.03;2.93;;;;;;;3.61;100.00;103551.84;1873720;75;934479;-75
2021/03/06 07:35:59;;;;;;;3.50;2.30;;;;;;;3.86;100.00;103543.55;1861604;75;933506;-76
2021/03/06 07:38:29;;;;;;;5.07;2.13;;;;;;;3.76;100.00;103548.40;1873676;75;934409;-77
2021/03/06 07:41:02;;;;;;;4.20;2.45;;;;;;;3.83;100.00;103556.28;1861099;75;933610;-77
2021/03/06 07:43:35;;;;;;;7.63;3.03;;;;;;;3.83;100.00;103559.03;1873784;75;933325;-77
2021/03/06 07:46:07;;;;;;;5.20;2.72;;;;;;;4.00;100.00;103554.70;1861458;75;934316;-76
2021/03/06 07:48:39;;;;;;;5.27;2.53;;;;;;;4.05;100.00;103551.42;1873667;75;932370;-76
2021/03/06 07:51:11;;;;;;;4.00;2.40;;;;;;;4.21;100.00;103546.38;1861418;74;934428;-76
2021/03/06 07:53:42;;;;;;;4.77;2.77;;;;;;;4.23;100.00;103541.06;1873779;75;932498;-76
2021/03/06 07:56:12;;;;;;;4.30;2.33;;;;;;;4.23;100.00;103541.06;1861470;75;934404;-76
2021/03/06 07:58:50;;;;;;;4.90;2.50;;;;;;;4.31;100.00;103536.03;1873738;75;932752;-76
2021/03/06 08:01:27;;;;;;;6.10;2.20;;;;;;;4.24;100.00;103535.88;1873680;75;934391;-77
2021/03/06 08:03:57;;;;;;;5.13;2.30;;;;;;;4.34;100.00;103540.66;1861488;74;934535;-77
2021/03/06 08:06:28;;;;;;;5.20;2.30;;;;;;;4.42;100.00;103543.37;1873820;75;934341;-77
2021/03/06 08:09:10;;;;;;;4.20;2.10;;;;;;;4.56;100.00;103534.87;1861493;75;934367;-77
2021/03/06 08:11:48;;;;;;;5.53;2.37;;;;;;;4.52;100.00;103530.26;1873634;75;932483;-76
2021/03/06 08:14:40;;;;;;;5.70;2.57;;;;;;;4.48;100.00;103539.91;1873551;75;933787;-77
2021/03/06 08:17:37;;;;;;;3.93;2.37;;;;;;;4.67;100.00;103533.60;1861401;75;933295;-78
2021/03/06 08:20:11;;;;;;;3.90;2.67;;;;;;;4.89;100.00;103533.64;1861464;75;937981;-76
2021/03/06 08:22:41;;;;;;;4.57;2.43;;;;;;;4.90;100.00;103539.50;1869530;74;932533;-77
2021/03/06 08:25:21;;;;;;;4.55;3.00;;;;;;;4.93;100.00;103530.86;1861191;75;934733;-77
2021/03/06 08:28:25;;;;;;;4.97;3.50;;;;;;;4.99;100.00;103535.66;1861355;74;934409;-78
2021/03/06 08:30:56;;;;;;;7.12;2.47;;;;;;;5.16;100.00;103539.66;1861321;74;934387;-77
2021/03/06 08:33:26;;;;;;;7.17;2.72;;;;;;;5.14;100.00;103541.21;1873574;75;934521;-76
2021/03/06 08:36:23;;;;;;;4.90;2.33;;;;;;;5.24;100.00;103540.45;1861563;75;934363;-77
2021/03/06 08:38:55;;;;;;;4.87;2.30;;;;;;;5.29;100.00;103542.14;1861391;74;934337;-76
2021/03/06 08:41:25;;;;;;;4.63;2.70;;;;;;;5.25;100.00;103528.92;1873713;75;934517;-76
2021/03/06 08:43:56;;;;;;;7.50;2.45;;;;;;;5.38;100.00;103533.28;1861396;75;933269;-77
2021/03/06 08:46:26;;;;;;;4.67;2.27;;;;;;;5.38;100.00;103534.15;1873607;75;933138;-77
2021/03/06 08:48:57;;;;;;;6.75;2.80;;;;;;;5.44;100.00;103527.87;1861408;74;933371;-77
2021/03/06 08:51:27;;;;;;;3.07;2.20;;;;;;;5.49;100.00;103533.69;1873887;75;933291;-77
2021/03/06 08:53:59;;;;;;;4.47;2.87;;;;;;;5.52;100.00;103533.00;1861453;75;934301;-78
2021/03/06 08:56:40;;;;;;;5.93;3.10;;;;;;;5.55;100.00;103537.61;1873768;75;934423;-77
2021/03/06 08:59:10;;;;;;;3.90;2.33;;;;;;;5.63;100.00;103536.67;1861351;75;934451;-77
2021/03/06 09:01:40;;;;;;;3.47;1.90;;;;;;;5.64;100.00;103530.98;1874036;75;932588;-75
2021/03/06 09:04:10;;;;;;;3.83;2.13;;;;;;;5.59;100.00;103528.44;1861351;75;934369;-77
2021/03/06 09:06:40;;;;;;;9.37;2.93;;;;;;;5.66;100.00;103533.02;1872151;75;932532;-76
2021/03/06 09:09:11;;;;;;;5.07;2.60;;;;;;;5.67;100.00;103535.25;1861219;75;934501;-77
2021/03/06 09:11:57;;;;;;;6.27;2.33;;;;;;;5.70;100.00;103534.87;1873877;75;932547;-77
2021/03/06 09:14:26;;;;;;;4.90;1.67;;;;;;;5.72;100.00;103526.77;1873689;75;934440;-76
2021/03/06 09:16:56;;;;;;;3.60;2.10;;;;;;;5.83;100.00;103535.08;1861603;75;934400;-77
2021/03/06 09:19:29;;;;;;;5.13;2.80;;;;;;;5.83;100.00;103530.95;1873588;75;934296;-75
2021/03/06 09:22:00;;;;;;;8.83;2.50;;;;;;;6.03;100.00;103540.95;1861188;75;934404;-76
2021/03/06 09:24:48;;;;;;;4.70;2.00;;;;;;;6.15;100.00;103521.50;1873734;75;933314;-76
2021/03/06 09:27:19;;;;;;;2.53;1.60;;;;;;;6.17;100.00;103527.66;1873590;75;933553;-76
2021/03/06 09:29:49;;;;;;;4.70;2.27;;;;;;;6.20;100.00;103528.16;1865675;75;933171;-77
2021/03/06 09:32:19;;;;;;;5.83;2.30;;;;;;;6.13;100.00;103516.16;1870633;75;934537;-75
2021/03/06 09:34:49;;;;;;;5.50;2.05;;;;;;;6.12;100.00;103524.09;1864391;75;934592;-76
2021/03/06 09:37:20;;;;;;;5.53;3.13;;;;;;;6.26;100.00;103523.77;1873559;75;934581;-76
2021/03/06 09:39:49;;;;;;;6.00;2.00;;;;;;;6.21;100.00;103523.47;1861416;75;934658;-75
2021/03/06 09:42:21;;;;;;;3.10;2.30;;;;;;;6.20;100.00;103525.41;1873743;75;934477;-75
2021/03/06 09:44:51;;;;;;;4.10;2.13;;;;;;;6.44;100.00;103522.84;1861528;74;934455;-75
2021/03/06 09:47:24;;;;;;;6.57;1.93;;;;;;;6.57;100.00;103531.30;1873766;75;934418;-75
2021/03/06 09:49:56;;;;;;;4.90;1.90;;;;;;;6.52;100.00;103528.25;1861375;75;934863;-74
2021/03/06 09:52:34;;;;;;;2.90;1.77;;;;;;;6.61;100.00;103531.24;1873705;75;934405;-76
2021/03/06 09:55:06;;;;;;;4.97;1.98;;;;;;;6.68;100.00;103522.50;1861452;74;933218;-75
2021/03/06 09:57:36;;;;;;;5.33;2.10;;;;;;;6.63;100.00;103522.22;1873254;74;931273;-76
2021/03/06 10:00:08;;;;;;;4.77;1.90;;;;;;;6.78;100.00;103517.53;1861302;75;934676;-76
2021/03/06 10:02:48;;;;;;;2.90;1.90;;;;;;;6.78;100.00;103517.53;1873637;74;932523;-75
2021/03/06 10:05:23;;;;;;;3.73;1.97;;;;;;;6.92;100.00;103513.02;1873640;75;934675;-77
2021/03/06 10:07:55;;;;;;;6.50;2.00;;;;;;;6.90;100.00;103512.86;1861313;75;933275;-77
2021/03/06 10:10:26;;;;;;;3.93;1.90;;;;;;;6.86;100.00;103515.16;1873581;74;933452;-77
2021/03/06 10:12:57;;;;;;;5.03;2.50;;;;;;;6.98;100.00;103512.21;1861492;75;934500;-77
2021/03/06 10:15:27;;;;;;;4.77;1.70;;;;;;;7.08;100.00;103512.75;1873692;75;934395;-77
2021/03/06 10:18:06;;;;;;;3.20;1.35;;;;;;;7.34;100.00;103506.62;1861433;75;934393;-79
2021/03/06 10:20:36;;;;;;;2.50;1.70;;;;;;;7.49;100.00;103505.99;1873782;75;932728;-79
2021/03/06 10:23:06;;;;;;;3.25;1.42;;;;;;;7.40;100.00;103507.75;1861513;75;934433;-78
2021/03/06 10:25:36;;;;;;;2.40;1.60;;;;;;;7.44;100.00;103500.77;1873724;75;932596;-82
2021/03/06 10:28:14;;;;;;;4.20;1.00;;;;;;;7.25;100.00;103499.52;1858576;74;934960;-78
2021/03/06 10:30:44;;;;;;;4.30;1.27;;;;;;;7.41;100.00;103499.23;1858065;76;931457;-76
2021/03/06 10:33:22;;;;;;;3.80;1.63;;;;;;;7.33;100.00;103496.61;1858050;76;933349;-76
2021/03/06 10:35:52;;;;;;;2.30;1.33;;;;;;;7.43;100.00;103497.66;1845838;76;934445;-77
2021/03/06 10:38:31;;;;;;;3.17;1.37;;;;;;;7.48;100.00;103490.48;1858147;76;933267;-78
2021/03/06 10:41:04;;;;;;;1.97;0.93;;;;;;;7.51;100.00;103488.69;1845846;76;933406;-79
2021/03/06 10:43:38;;;;;;;3.63;0.80;;;;;;;7.54;100.00;103484.13;1858203;76;932429;-77
2021/03/06 10:46:16;;;;;;;1.77;0.80;;;;;;;7.54;100.00;103485.52;1845745;76;934640;-76
2021/03/06 10:48:48;;;;;;;1.47;0.78;;;;;;;7.47;100.00;103479.09;1858107;76;932724;-77
2021/03/06 10:51:18;;;;;;;2.33;0.70;;;;;;;7.38;100.00;103485.81;1857859;76;934414;-77
2021/03/06 10:54:02;;;;;;;3.50;0.97;;;;;;;7.45;100.00;103473.41;1857993;76;932708;-78
2021/03/06 10:56:33;;;;;;;4.63;1.23;;;;;;;7.47;100.00;103478.23;1858032;76;934464;-77
2021/03/06 10:59:03;;;;;;;0.98;0.68;;;;;;;7.45;100.00;103477.55;1846074;76;934631;-77
2021/03/06 11:01:33;;;;;;;1.07;0.50;;;;;;;7.59;100.00;103474.70;1857948;76;934403;-77
2021/03/06 11:04:04;;;;;;;1.20;0.47;;;;;;;7.53;100.00;103473.29;1845753;75;934539;-77
2021/03/06 11:06:35;;;;;;;2.20;0.63;;;;;;;7.50;100.00;103472.28;1857865;76;931535;-78
2021/03/06 11:09:08;;;;;;;1.35;0.80;;;;;;;7.54;100.00;103473.59;1846761;76;933557;-76
2021/03/06 11:11:38;;;;;;;1.50;0.70;;;;;;;7.61;100.00;103473.13;1858118;76;931596;-76
2021/03/06 11:14:11;;;;;;;3.72;0.82;;;;;;;7.62;100.00;103472.05;1845892;76;934550;-77
2021/03/06 11:16:42;;;;;;;0.80;0.70;;;;;;;7.61;100.00;103466.22;1855222;76;932778;-77
2021/03/06 11:19:12;;;;;;;2.10;0.77;;;;;;;7.70;100.00;103469.98;1845848;76;934461;-76
2021/03/06 11:21:41;;;;;;;1.03;0.67;;;;;;;7.76;100.00;103464.17;1858004;76;932580;-77
2021/03/06 11:24:12;;;;;;;1.73;0.90;;;;;;;7.96;100.00;103460.99;1845815;76;934685;-76
2021/03/06 11:26:42;;;;;;;1.47;0.50;;;;;;;8.28;100.00;103453.92;1858027;76;932577;-77
2021/03/06 11:29:12;;;;;;;5.83;0.70;;;;;;;8.30;100.00;103455.97;1845838;75;934514;-78
2021/03/06 11:31:43;;;;;;;1.53;0.90;;;;;;;8.41;100.00;103452.63;1857666;76;932678;-78
2021/03/06 11:34:13;;;;;;;1.63;0.83;;;;;;;8.32;100.00;103446.09;1858142;76;934681;-77
2021/03/06 11:36:43;;;;;;;3.07;0.70;;;;;;;8.18;100.00;103454.30;1858117;76;932517;-77
2021/03/06 11:39:13;;;;;;;3.50;0.90;;;;;;;8.08;100.00;103451.08;1857965;76;934566;-76
2021/03/06 11:41:43;;;;;;;2.60;0.93;;;;;;;8.09;100.00;103435.30;1858029;76;931372;-77